sensor_id;sensor_type;location;lat;lon;timestamp;P1;durP1;ratioP1;P2;durP2;ratioP2
54263;SDS011;40178;53.042;6.406;2023-12-14T00:01:17;12.50;;;6.35;;
54263;SDS011;40178;53.042;6.406;2023-12-14T00:03:43;12.77;;;6.15;;
54263;SDS011;40178;53.042;6.406;2023-12-14T00:06:12;13.43;;;7.15;;
54263;SDS011;40178;53.042;6.406;2023-12-14T00:08:38;12.75;;;6.25;;
54263;SDS011;40178;53.042;6.406;2023-12-14T00:11:07;13.38;;;6.85;;
54263;SDS011;40178;53.042;6.406;2023-12-14T00:13:35;11.10;;;5.88;;
54263;SDS011;40178;53.042;6.406;2023-12-14T00:16:01;11.52;;;5.97;;
54263;SDS011;40178;53.042;6.406;2023-12-14T00:18:27;13.73;;;6.22;;
54263;SDS011;40178;53.042;6.406;2023-12-14T00:20:52;13.00;;;6.22;;
54263;SDS011;40178;53.042;6.406;2023-12-14T00:23:19;11.60;;;6.32;;
54263;SDS011;40178;53.042;6.406;2023-12-14T00:25:45;12.07;;;5.82;;
54263;SDS011;40178;53.042;6.406;2023-12-14T00:28:11;9.93;;;5.38;;
54263;SDS011;40178;53.042;6.406;2023-12-14T00:30:37;11.93;;;6.72;;
54263;SDS011;40178;53.042;6.406;2023-12-14T00:33:02;15.20;;;6.22;;
54263;SDS011;40178;53.042;6.406;2023-12-14T00:35:28;10.93;;;5.35;;
54263;SDS011;40178;53.042;6.406;2023-12-14T00:37:53;11.07;;;5.45;;
54263;SDS011;40178;53.042;6.406;2023-12-14T00:40:19;9.80;;;5.32;;
54263;SDS011;40178;53.042;6.406;2023-12-14T00:42:45;13.02;;;5.35;;
54263;SDS011;40178;53.042;6.406;2023-12-14T00:45:11;11.50;;;5.82;;
54263;SDS011;40178;53.042;6.406;2023-12-14T00:47:36;12.35;;;6.10;;
54263;SDS011;40178;53.042;6.406;2023-12-14T00:50:02;11.10;;;5.55;;
54263;SDS011;40178;53.042;6.406;2023-12-14T00:52:28;10.15;;;5.10;;
54263;SDS011;40178;53.042;6.406;2023-12-14T00:54:54;11.38;;;6.07;;
54263;SDS011;40178;53.042;6.406;2023-12-14T00:57:19;10.88;;;5.38;;
54263;SDS011;40178;53.042;6.406;2023-12-14T00:59:45;9.60;;;5.28;;
54263;SDS011;40178;53.042;6.406;2023-12-14T01:02:11;11.25;;;5.25;;
54263;SDS011;40178;53.042;6.406;2023-12-14T01:04:36;11.38;;;4.85;;
54263;SDS011;40178;53.042;6.406;2023-12-14T01:07:03;10.55;;;5.43;;
54263;SDS011;40178;53.042;6.406;2023-12-14T01:09:29;9.98;;;5.28;;
54263;SDS011;40178;53.042;6.406;2023-12-14T01:11:54;9.80;;;5.03;;
54263;SDS011;40178;53.042;6.406;2023-12-14T01:14:20;9.75;;;5.30;;
54263;SDS011;40178;53.042;6.406;2023-12-14T01:16:46;9.20;;;5.10;;
54263;SDS011;40178;53.042;6.406;2023-12-14T01:19:12;7.60;;;4.10;;
54263;SDS011;40178;53.042;6.406;2023-12-14T01:21:37;8.98;;;4.60;;
54263;SDS011;40178;53.042;6.406;2023-12-14T01:24:03;7.63;;;4.25;;
54263;SDS011;40178;53.042;6.406;2023-12-14T01:26:29;8.30;;;4.72;;
54263;SDS011;40178;53.042;6.406;2023-12-14T01:28:54;7.82;;;4.18;;
54263;SDS011;40178;53.042;6.406;2023-12-14T01:31:20;8.65;;;4.50;;
54263;SDS011;40178;53.042;6.406;2023-12-14T01:33:49;7.75;;;4.45;;
54263;SDS011;40178;53.042;6.406;2023-12-14T01:36:21;8.85;;;4.32;;
54263;SDS011;40178;53.042;6.406;2023-12-14T01:38:48;9.27;;;4.28;;
54263;SDS011;40178;53.042;6.406;2023-12-14T01:41:13;8.43;;;4.50;;
54263;SDS011;40178;53.042;6.406;2023-12-14T01:43:39;7.10;;;3.70;;
54263;SDS011;40178;53.042;6.406;2023-12-14T01:46:05;11.75;;;4.38;;
54263;SDS011;40178;53.042;6.406;2023-12-14T01:48:30;6.80;;;3.75;;
54263;SDS011;40178;53.042;6.406;2023-12-14T01:50:56;8.52;;;4.32;;
54263;SDS011;40178;53.042;6.406;2023-12-14T01:53:22;11.55;;;4.68;;
54263;SDS011;40178;53.042;6.406;2023-12-14T01:55:47;9.57;;;3.90;;
54263;SDS011;40178;53.042;6.406;2023-12-14T01:58:13;8.40;;;3.78;;
54263;SDS011;40178;53.042;6.406;2023-12-14T02:03:11;9.93;;;4.38;;
54263;SDS011;40178;53.042;6.406;2023-12-14T02:05:37;8.32;;;4.35;;
54263;SDS011;40178;53.042;6.406;2023-12-14T02:08:02;9.88;;;4.68;;
54263;SDS011;40178;53.042;6.406;2023-12-14T02:10:28;9.90;;;4.78;;
54263;SDS011;40178;53.042;6.406;2023-12-14T02:12:54;11.40;;;5.47;;
54263;SDS011;40178;53.042;6.406;2023-12-14T02:15:19;11.18;;;5.78;;
54263;SDS011;40178;53.042;6.406;2023-12-14T02:17:45;10.38;;;6.03;;
54263;SDS011;40178;53.042;6.406;2023-12-14T02:20:11;10.73;;;5.47;;
54263;SDS011;40178;53.042;6.406;2023-12-14T02:22:53;11.23;;;5.75;;
54263;SDS011;40178;53.042;6.406;2023-12-14T02:25:22;13.53;;;5.80;;
54263;SDS011;40178;53.042;6.406;2023-12-14T02:27:48;13.43;;;6.68;;
54263;SDS011;40178;53.042;6.406;2023-12-14T02:30:16;14.90;;;6.47;;
54263;SDS011;40178;53.042;6.406;2023-12-14T02:32:43;11.75;;;5.93;;
54263;SDS011;40178;53.042;6.406;2023-12-14T02:35:08;13.18;;;6.47;;
54263;SDS011;40178;53.042;6.406;2023-12-14T02:37:34;12.82;;;6.35;;
54263;SDS011;40178;53.042;6.406;2023-12-14T02:40:02;12.45;;;6.03;;
54263;SDS011;40178;53.042;6.406;2023-12-14T02:42:29;11.27;;;6.60;;
54263;SDS011;40178;53.042;6.406;2023-12-14T02:44:55;12.98;;;5.93;;
54263;SDS011;40178;53.042;6.406;2023-12-14T02:47:21;14.63;;;6.40;;
54263;SDS011;40178;53.042;6.406;2023-12-14T02:49:47;14.18;;;6.65;;
54263;SDS011;40178;53.042;6.406;2023-12-14T02:52:12;15.70;;;6.50;;
54263;SDS011;40178;53.042;6.406;2023-12-14T02:54:38;12.60;;;6.45;;
54263;SDS011;40178;53.042;6.406;2023-12-14T02:57:04;14.50;;;6.82;;
54263;SDS011;40178;53.042;6.406;2023-12-14T02:59:30;12.20;;;5.70;;
54263;SDS011;40178;53.042;6.406;2023-12-14T03:01:55;15.57;;;6.70;;
54263;SDS011;40178;53.042;6.406;2023-12-14T03:04:21;11.82;;;6.28;;
54263;SDS011;40178;53.042;6.406;2023-12-14T03:06:46;13.63;;;6.63;;
54263;SDS011;40178;53.042;6.406;2023-12-14T03:09:12;13.48;;;6.55;;
54263;SDS011;40178;53.042;6.406;2023-12-14T03:11:38;13.32;;;6.50;;
54263;SDS011;40178;53.042;6.406;2023-12-14T03:14:03;14.27;;;5.63;;
54263;SDS011;40178;53.042;6.406;2023-12-14T03:16:29;16.10;;;5.80;;
54263;SDS011;40178;53.042;6.406;2023-12-14T03:18:54;14.60;;;6.95;;
54263;SDS011;40178;53.042;6.406;2023-12-14T03:21:21;13.43;;;6.68;;
54263;SDS011;40178;53.042;6.406;2023-12-14T03:23:47;14.20;;;6.20;;
54263;SDS011;40178;53.042;6.406;2023-12-14T03:26:13;13.82;;;6.68;;
54263;SDS011;40178;53.042;6.406;2023-12-14T03:28:39;12.68;;;6.03;;
54263;SDS011;40178;53.042;6.406;2023-12-14T03:31:04;14.35;;;6.43;;
54263;SDS011;40178;53.042;6.406;2023-12-14T03:33:30;16.23;;;6.78;;
54263;SDS011;40178;53.042;6.406;2023-12-14T03:35:55;12.48;;;5.70;;
54263;SDS011;40178;53.042;6.406;2023-12-14T03:38:22;11.85;;;5.95;;
54263;SDS011;40178;53.042;6.406;2023-12-14T03:40:47;11.90;;;5.95;;
54263;SDS011;40178;53.042;6.406;2023-12-14T03:43:13;16.75;;;5.97;;
54263;SDS011;40178;53.042;6.406;2023-12-14T03:45:38;13.88;;;6.40;;
54263;SDS011;40178;53.042;6.406;2023-12-14T03:48:04;15.43;;;6.20;;
54263;SDS011;40178;53.042;6.406;2023-12-14T03:50:30;12.32;;;5.82;;
54263;SDS011;40178;53.042;6.406;2023-12-14T03:52:57;16.77;;;7.25;;
54263;SDS011;40178;53.042;6.406;2023-12-14T03:55:23;15.23;;;6.30;;
54263;SDS011;40178;53.042;6.406;2023-12-14T03:57:49;15.27;;;6.03;;
54263;SDS011;40178;53.042;6.406;2023-12-14T04:00:14;10.75;;;5.57;;
54263;SDS011;40178;53.042;6.406;2023-12-14T04:02:40;14.20;;;6.13;;
54263;SDS011;40178;53.042;6.406;2023-12-14T04:05:06;15.13;;;6.47;;
54263;SDS011;40178;53.042;6.406;2023-12-14T04:07:36;12.27;;;5.47;;
54263;SDS011;40178;53.042;6.406;2023-12-14T04:10:05;13.45;;;6.07;;
54263;SDS011;40178;53.042;6.406;2023-12-14T04:12:35;12.57;;;5.65;;
54263;SDS011;40178;53.042;6.406;2023-12-14T04:15:01;13.98;;;6.72;;
54263;SDS011;40178;53.042;6.406;2023-12-14T04:17:27;13.40;;;6.43;;
54263;SDS011;40178;53.042;6.406;2023-12-14T04:19:53;12.90;;;5.60;;
54263;SDS011;40178;53.042;6.406;2023-12-14T04:22:19;10.55;;;5.03;;
54263;SDS011;40178;53.042;6.406;2023-12-14T04:24:44;12.60;;;6.10;;
54263;SDS011;40178;53.042;6.406;2023-12-14T04:27:10;13.50;;;6.22;;
54263;SDS011;40178;53.042;6.406;2023-12-14T04:29:35;13.20;;;5.88;;
54263;SDS011;40178;53.042;6.406;2023-12-14T04:32:01;16.38;;;6.47;;
54263;SDS011;40178;53.042;6.406;2023-12-14T04:34:27;13.73;;;5.85;;
54263;SDS011;40178;53.042;6.406;2023-12-14T04:36:53;13.82;;;5.63;;
54263;SDS011;40178;53.042;6.406;2023-12-14T04:39:22;11.65;;;5.78;;
54263;SDS011;40178;53.042;6.406;2023-12-14T04:41:50;13.27;;;6.40;;
54263;SDS011;40178;53.042;6.406;2023-12-14T04:44:16;13.73;;;6.47;;
54263;SDS011;40178;53.042;6.406;2023-12-14T04:46:41;13.07;;;6.05;;
54263;SDS011;40178;53.042;6.406;2023-12-14T04:49:07;13.75;;;6.40;;
54263;SDS011;40178;53.042;6.406;2023-12-14T04:51:33;12.38;;;5.97;;
54263;SDS011;40178;53.042;6.406;2023-12-14T04:53:58;14.27;;;6.43;;
54263;SDS011;40178;53.042;6.406;2023-12-14T04:56:24;18.23;;;6.97;;
54263;SDS011;40178;53.042;6.406;2023-12-14T04:58:50;14.25;;;6.22;;
54263;SDS011;40178;53.042;6.406;2023-12-14T05:01:15;14.23;;;6.20;;
54263;SDS011;40178;53.042;6.406;2023-12-14T05:03:41;13.48;;;6.55;;
54263;SDS011;40178;53.042;6.406;2023-12-14T05:06:07;12.10;;;5.82;;
54263;SDS011;40178;53.042;6.406;2023-12-14T05:08:33;13.85;;;6.55;;
54263;SDS011;40178;53.042;6.406;2023-12-14T05:10:59;15.23;;;6.15;;
54263;SDS011;40178;53.042;6.406;2023-12-14T05:13:24;13.50;;;6.72;;
54263;SDS011;40178;53.042;6.406;2023-12-14T05:15:51;12.93;;;6.47;;
54263;SDS011;40178;53.042;6.406;2023-12-14T05:18:17;14.98;;;6.97;;
54263;SDS011;40178;53.042;6.406;2023-12-14T05:20:43;15.82;;;7.20;;
54263;SDS011;40178;53.042;6.406;2023-12-14T05:23:10;16.08;;;6.68;;
54263;SDS011;40178;53.042;6.406;2023-12-14T05:25:36;14.88;;;6.53;;
54263;SDS011;40178;53.042;6.406;2023-12-14T05:28:02;13.70;;;6.22;;
54263;SDS011;40178;53.042;6.406;2023-12-14T05:30:28;14.00;;;6.95;;
54263;SDS011;40178;53.042;6.406;2023-12-14T05:32:55;12.63;;;6.55;;
54263;SDS011;40178;53.042;6.406;2023-12-14T05:35:20;17.67;;;7.75;;
54263;SDS011;40178;53.042;6.406;2023-12-14T05:37:46;13.30;;;6.47;;
54263;SDS011;40178;53.042;6.406;2023-12-14T05:40:12;12.57;;;6.95;;
54263;SDS011;40178;53.042;6.406;2023-12-14T05:42:37;16.77;;;6.82;;
54263;SDS011;40178;53.042;6.406;2023-12-14T05:45:04;16.08;;;7.45;;
54263;SDS011;40178;53.042;6.406;2023-12-14T05:47:30;18.42;;;6.88;;
54263;SDS011;40178;53.042;6.406;2023-12-14T05:49:57;14.35;;;6.93;;
54263;SDS011;40178;53.042;6.406;2023-12-14T05:52:24;12.32;;;6.65;;
54263;SDS011;40178;53.042;6.406;2023-12-14T05:54:50;14.68;;;6.82;;
54263;SDS011;40178;53.042;6.406;2023-12-14T05:57:15;16.20;;;7.32;;
54263;SDS011;40178;53.042;6.406;2023-12-14T05:59:41;14.35;;;6.30;;
54263;SDS011;40178;53.042;6.406;2023-12-14T06:02:07;13.63;;;6.88;;
54263;SDS011;40178;53.042;6.406;2023-12-14T06:04:33;14.45;;;7.20;;
54263;SDS011;40178;53.042;6.406;2023-12-14T06:06:58;15.30;;;6.70;;
54263;SDS011;40178;53.042;6.406;2023-12-14T06:09:24;16.35;;;6.80;;
54263;SDS011;40178;53.042;6.406;2023-12-14T06:11:58;18.25;;;6.43;;
54263;SDS011;40178;53.042;6.406;2023-12-14T06:14:27;15.55;;;7.63;;
54263;SDS011;40178;53.042;6.406;2023-12-14T06:16:53;17.42;;;7.57;;
54263;SDS011;40178;53.042;6.406;2023-12-14T06:19:19;19.50;;;7.53;;
54263;SDS011;40178;53.042;6.406;2023-12-14T06:21:44;16.92;;;7.13;;
54263;SDS011;40178;53.042;6.406;2023-12-14T06:24:10;15.55;;;7.10;;
54263;SDS011;40178;53.042;6.406;2023-12-14T06:26:40;17.25;;;7.10;;
54263;SDS011;40178;53.042;6.406;2023-12-14T06:29:07;18.20;;;8.18;;
54263;SDS011;40178;53.042;6.406;2023-12-14T06:31:32;15.48;;;7.28;;
54263;SDS011;40178;53.042;6.406;2023-12-14T06:33:58;15.70;;;7.38;;
54263;SDS011;40178;53.042;6.406;2023-12-14T06:36:25;14.30;;;7.15;;
54263;SDS011;40178;53.042;6.406;2023-12-14T06:38:54;13.30;;;6.50;;
54263;SDS011;40178;53.042;6.406;2023-12-14T06:41:20;16.77;;;7.30;;
54263;SDS011;40178;53.042;6.406;2023-12-14T06:43:47;15.20;;;7.57;;
54263;SDS011;40178;53.042;6.406;2023-12-14T06:46:13;12.60;;;7.03;;
54263;SDS011;40178;53.042;6.406;2023-12-14T06:48:39;16.95;;;7.03;;
54263;SDS011;40178;53.042;6.406;2023-12-14T06:51:05;16.77;;;7.63;;
54263;SDS011;40178;53.042;6.406;2023-12-14T06:53:30;14.52;;;7.45;;
54263;SDS011;40178;53.042;6.406;2023-12-14T06:55:56;14.65;;;6.78;;
54263;SDS011;40178;53.042;6.406;2023-12-14T06:58:21;16.00;;;7.22;;
54263;SDS011;40178;53.042;6.406;2023-12-14T07:00:47;13.27;;;7.00;;
54263;SDS011;40178;53.042;6.406;2023-12-14T07:03:13;17.70;;;7.43;;
54263;SDS011;40178;53.042;6.406;2023-12-14T07:05:38;14.93;;;7.97;;
54263;SDS011;40178;53.042;6.406;2023-12-14T07:08:04;15.77;;;7.85;;
54263;SDS011;40178;53.042;6.406;2023-12-14T07:10:30;15.05;;;7.88;;
54263;SDS011;40178;53.042;6.406;2023-12-14T07:12:56;16.05;;;7.68;;
54263;SDS011;40178;53.042;6.406;2023-12-14T07:15:21;18.75;;;7.22;;
54263;SDS011;40178;53.042;6.406;2023-12-14T07:17:47;15.43;;;6.72;;
54263;SDS011;40178;53.042;6.406;2023-12-14T07:20:13;17.98;;;7.60;;
54263;SDS011;40178;53.042;6.406;2023-12-14T07:22:38;15.73;;;7.60;;
54263;SDS011;40178;53.042;6.406;2023-12-14T07:25:04;16.55;;;7.82;;
54263;SDS011;40178;53.042;6.406;2023-12-14T07:27:30;14.43;;;7.07;;
54263;SDS011;40178;53.042;6.406;2023-12-14T07:29:55;17.52;;;7.20;;
54263;SDS011;40178;53.042;6.406;2023-12-14T07:32:21;14.60;;;6.57;;
54263;SDS011;40178;53.042;6.406;2023-12-14T07:34:47;16.08;;;7.75;;
54263;SDS011;40178;53.042;6.406;2023-12-14T07:37:13;15.23;;;7.10;;
54263;SDS011;40178;53.042;6.406;2023-12-14T07:39:38;14.70;;;7.47;;
54263;SDS011;40178;53.042;6.406;2023-12-14T07:42:04;15.20;;;6.72;;
54263;SDS011;40178;53.042;6.406;2023-12-14T07:44:30;15.30;;;7.22;;
54263;SDS011;40178;53.042;6.406;2023-12-14T07:46:56;14.68;;;6.97;;
54263;SDS011;40178;53.042;6.406;2023-12-14T07:49:23;16.42;;;7.90;;
54263;SDS011;40178;53.042;6.406;2023-12-14T07:51:49;16.88;;;6.88;;
54263;SDS011;40178;53.042;6.406;2023-12-14T07:54:15;16.60;;;8.20;;
54263;SDS011;40178;53.042;6.406;2023-12-14T07:56:40;16.95;;;7.82;;
54263;SDS011;40178;53.042;6.406;2023-12-14T07:59:06;15.88;;;7.45;;
54263;SDS011;40178;53.042;6.406;2023-12-14T08:01:33;14.00;;;7.03;;
54263;SDS011;40178;53.042;6.406;2023-12-14T08:03:59;16.30;;;7.45;;
54263;SDS011;40178;53.042;6.406;2023-12-14T08:06:25;15.45;;;7.18;;
54263;SDS011;40178;53.042;6.406;2023-12-14T08:08:50;17.10;;;7.32;;
54263;SDS011;40178;53.042;6.406;2023-12-14T08:11:16;13.48;;;6.35;;
54263;SDS011;40178;53.042;6.406;2023-12-14T08:13:42;17.60;;;7.18;;
54263;SDS011;40178;53.042;6.406;2023-12-14T08:16:08;14.25;;;6.63;;
54263;SDS011;40178;53.042;6.406;2023-12-14T08:18:34;16.33;;;7.68;;
54263;SDS011;40178;53.042;6.406;2023-12-14T08:20:59;15.50;;;7.90;;
54263;SDS011;40178;53.042;6.406;2023-12-14T08:23:25;19.05;;;7.88;;
54263;SDS011;40178;53.042;6.406;2023-12-14T08:25:55;16.65;;;7.20;;
54263;SDS011;40178;53.042;6.406;2023-12-14T08:28:24;16.85;;;7.55;;
54263;SDS011;40178;53.042;6.406;2023-12-14T08:30:51;17.65;;;7.70;;
54263;SDS011;40178;53.042;6.406;2023-12-14T08:33:17;13.70;;;7.00;;
54263;SDS011;40178;53.042;6.406;2023-12-14T08:35:43;16.75;;;7.20;;
54263;SDS011;40178;53.042;6.406;2023-12-14T08:38:09;18.02;;;7.60;;
54263;SDS011;40178;53.042;6.406;2023-12-14T08:40:36;15.20;;;7.38;;
54263;SDS011;40178;53.042;6.406;2023-12-14T08:43:02;16.52;;;7.60;;
54263;SDS011;40178;53.042;6.406;2023-12-14T08:45:28;19.33;;;8.40;;
54263;SDS011;40178;53.042;6.406;2023-12-14T08:47:54;18.55;;;7.85;;
54263;SDS011;40178;53.042;6.406;2023-12-14T08:50:19;18.55;;;8.75;;
54263;SDS011;40178;53.042;6.406;2023-12-14T08:52:45;17.20;;;8.57;;
54263;SDS011;40178;53.042;6.406;2023-12-14T08:55:12;22.63;;;8.82;;
54263;SDS011;40178;53.042;6.406;2023-12-14T08:57:38;24.35;;;7.55;;
54263;SDS011;40178;53.042;6.406;2023-12-14T09:00:04;16.05;;;7.75;;
54263;SDS011;40178;53.042;6.406;2023-12-14T09:02:31;16.45;;;8.07;;
54263;SDS011;40178;53.042;6.406;2023-12-14T09:04:57;19.52;;;9.25;;
54263;SDS011;40178;53.042;6.406;2023-12-14T09:07:23;16.35;;;8.43;;
54263;SDS011;40178;53.042;6.406;2023-12-14T09:09:49;15.63;;;7.35;;
54263;SDS011;40178;53.042;6.406;2023-12-14T09:12:15;19.02;;;8.00;;
54263;SDS011;40178;53.042;6.406;2023-12-14T09:14:40;19.17;;;8.35;;
54263;SDS011;40178;53.042;6.406;2023-12-14T09:17:06;16.30;;;7.93;;
54263;SDS011;40178;53.042;6.406;2023-12-14T09:19:31;19.50;;;8.80;;
54263;SDS011;40178;53.042;6.406;2023-12-14T09:21:57;18.52;;;8.20;;
54263;SDS011;40178;53.042;6.406;2023-12-14T09:24:23;18.38;;;8.57;;
54263;SDS011;40178;53.042;6.406;2023-12-14T09:26:49;17.35;;;7.57;;
54263;SDS011;40178;53.042;6.406;2023-12-14T09:29:15;18.42;;;7.68;;
54263;SDS011;40178;53.042;6.406;2023-12-14T09:31:41;17.60;;;8.15;;
54263;SDS011;40178;53.042;6.406;2023-12-14T09:34:08;17.52;;;8.38;;
54263;SDS011;40178;53.042;6.406;2023-12-14T09:36:37;17.50;;;8.05;;
54263;SDS011;40178;53.042;6.406;2023-12-14T09:39:03;17.45;;;7.88;;
54263;SDS011;40178;53.042;6.406;2023-12-14T09:41:35;19.45;;;8.93;;
54263;SDS011;40178;53.042;6.406;2023-12-14T09:44:02;17.10;;;8.15;;
54263;SDS011;40178;53.042;6.406;2023-12-14T09:46:28;20.65;;;8.77;;
54263;SDS011;40178;53.042;6.406;2023-12-14T09:48:55;17.40;;;7.97;;
54263;SDS011;40178;53.042;6.406;2023-12-14T09:51:22;21.33;;;8.27;;
54263;SDS011;40178;53.042;6.406;2023-12-14T09:53:49;15.90;;;8.25;;
54263;SDS011;40178;53.042;6.406;2023-12-14T09:56:16;22.95;;;8.77;;
54263;SDS011;40178;53.042;6.406;2023-12-14T09:58:41;16.02;;;8.65;;
54263;SDS011;40178;53.042;6.406;2023-12-14T10:04:15;18.70;;;8.60;;
54263;SDS011;40178;53.042;6.406;2023-12-14T10:06:42;19.75;;;8.57;;
54263;SDS011;40178;53.042;6.406;2023-12-14T10:09:09;21.20;;;10.15;;
54263;SDS011;40178;53.042;6.406;2023-12-14T10:11:41;15.40;;;8.05;;
54263;SDS011;40178;53.042;6.406;2023-12-14T10:14:17;21.67;;;8.93;;
54263;SDS011;40178;53.042;6.406;2023-12-14T10:16:45;20.77;;;9.93;;
54263;SDS011;40178;53.042;6.406;2023-12-14T10:19:12;22.45;;;9.23;;
54263;SDS011;40178;53.042;6.406;2023-12-14T10:21:37;17.33;;;8.63;;
54263;SDS011;40178;53.042;6.406;2023-12-14T10:24:03;17.95;;;9.15;;
54263;SDS011;40178;53.042;6.406;2023-12-14T10:26:31;20.05;;;9.07;;
54263;SDS011;40178;53.042;6.406;2023-12-14T10:28:56;23.73;;;10.10;;
54263;SDS011;40178;53.042;6.406;2023-12-14T10:31:22;19.48;;;9.75;;
54263;SDS011;40178;53.042;6.406;2023-12-14T10:33:51;19.52;;;9.82;;
54263;SDS011;40178;53.042;6.406;2023-12-14T10:36:21;20.50;;;8.70;;
54263;SDS011;40178;53.042;6.406;2023-12-14T10:38:51;21.02;;;8.68;;
54263;SDS011;40178;53.042;6.406;2023-12-14T10:41:18;21.27;;;9.32;;
54263;SDS011;40178;53.042;6.406;2023-12-14T10:43:47;20.80;;;8.32;;
54263;SDS011;40178;53.042;6.406;2023-12-14T10:46:14;16.85;;;9.15;;
54263;SDS011;40178;53.042;6.406;2023-12-14T10:48:40;16.75;;;8.82;;
54263;SDS011;40178;53.042;6.406;2023-12-14T10:51:12;17.35;;;8.70;;
54263;SDS011;40178;53.042;6.406;2023-12-14T10:53:38;19.63;;;8.43;;
54263;SDS011;40178;53.042;6.406;2023-12-14T10:56:05;17.13;;;8.60;;
54263;SDS011;40178;53.042;6.406;2023-12-14T10:58:48;16.63;;;7.95;;
54263;SDS011;40178;53.042;6.406;2023-12-14T11:01:21;19.23;;;8.93;;
54263;SDS011;40178;53.042;6.406;2023-12-14T11:03:54;18.90;;;8.68;;
54263;SDS011;40178;53.042;6.406;2023-12-14T11:08:58;19.63;;;8.07;;
54263;SDS011;40178;53.042;6.406;2023-12-14T11:11:38;16.65;;;8.15;;
54263;SDS011;40178;53.042;6.406;2023-12-14T11:14:18;16.05;;;7.28;;
54263;SDS011;40178;53.042;6.406;2023-12-14T11:16:44;19.60;;;9.25;;
54263;SDS011;40178;53.042;6.406;2023-12-14T11:24:22;16.00;;;7.88;;
54263;SDS011;40178;53.042;6.406;2023-12-14T11:26:49;19.33;;;8.57;;
54263;SDS011;40178;53.042;6.406;2023-12-14T11:29:15;13.63;;;7.55;;
54263;SDS011;40178;53.042;6.406;2023-12-14T11:31:42;15.02;;;8.02;;
54263;SDS011;40178;53.042;6.406;2023-12-14T11:34:08;15.75;;;7.75;;
54263;SDS011;40178;53.042;6.406;2023-12-14T11:36:33;16.15;;;7.40;;
54263;SDS011;40178;53.042;6.406;2023-12-14T11:39:00;14.48;;;8.20;;
54263;SDS011;40178;53.042;6.406;2023-12-14T11:41:26;15.40;;;7.97;;
54263;SDS011;40178;53.042;6.406;2023-12-14T11:43:54;15.43;;;8.02;;
54263;SDS011;40178;53.042;6.406;2023-12-14T11:46:20;16.58;;;8.20;;
54263;SDS011;40178;53.042;6.406;2023-12-14T11:48:46;18.27;;;7.82;;
54263;SDS011;40178;53.042;6.406;2023-12-14T11:51:14;16.08;;;7.50;;
54263;SDS011;40178;53.042;6.406;2023-12-14T11:53:43;16.92;;;8.20;;
54263;SDS011;40178;53.042;6.406;2023-12-14T11:56:18;14.03;;;7.30;;
54263;SDS011;40178;53.042;6.406;2023-12-14T11:58:44;18.67;;;8.63;;
54263;SDS011;40178;53.042;6.406;2023-12-14T12:01:15;13.45;;;7.13;;
54263;SDS011;40178;53.042;6.406;2023-12-14T12:03:43;16.15;;;7.47;;
54263;SDS011;40178;53.042;6.406;2023-12-14T12:08:51;16.27;;;7.57;;
54263;SDS011;40178;53.042;6.406;2023-12-14T12:11:17;16.17;;;7.63;;
54263;SDS011;40178;53.042;6.406;2023-12-14T12:13:44;15.50;;;8.23;;
54263;SDS011;40178;53.042;6.406;2023-12-14T12:16:19;21.08;;;9.10;;
54263;SDS011;40178;53.042;6.406;2023-12-14T12:18:45;15.70;;;8.15;;
54263;SDS011;40178;53.042;6.406;2023-12-14T12:21:11;16.60;;;7.95;;
54263;SDS011;40178;53.042;6.406;2023-12-14T12:23:37;16.58;;;8.77;;
54263;SDS011;40178;53.042;6.406;2023-12-14T12:26:03;16.50;;;8.23;;
54263;SDS011;40178;53.042;6.406;2023-12-14T12:28:30;15.10;;;8.85;;
54263;SDS011;40178;53.042;6.406;2023-12-14T12:30:56;16.98;;;8.32;;
54263;SDS011;40178;53.042;6.406;2023-12-14T12:33:21;17.00;;;7.72;;
54263;SDS011;40178;53.042;6.406;2023-12-14T12:35:47;14.88;;;8.10;;
54263;SDS011;40178;53.042;6.406;2023-12-14T12:38:13;13.00;;;7.40;;
54263;SDS011;40178;53.042;6.406;2023-12-14T12:40:39;14.55;;;7.80;;
54263;SDS011;40178;53.042;6.406;2023-12-14T12:43:05;16.42;;;7.70;;
54263;SDS011;40178;53.042;6.406;2023-12-14T12:45:30;12.80;;;6.82;;
54263;SDS011;40178;53.042;6.406;2023-12-14T12:47:57;13.52;;;8.00;;
54263;SDS011;40178;53.042;6.406;2023-12-14T12:50:23;14.00;;;7.90;;
54263;SDS011;40178;53.042;6.406;2023-12-14T12:52:48;15.63;;;7.65;;
54263;SDS011;40178;53.042;6.406;2023-12-14T12:55:14;15.10;;;7.88;;
54263;SDS011;40178;53.042;6.406;2023-12-14T12:57:40;14.88;;;8.20;;
54263;SDS011;40178;53.042;6.406;2023-12-14T13:00:07;17.73;;;8.95;;
54263;SDS011;40178;53.042;6.406;2023-12-14T13:02:39;18.42;;;7.82;;
54263;SDS011;40178;53.042;6.406;2023-12-14T13:05:06;14.65;;;7.90;;
54263;SDS011;40178;53.042;6.406;2023-12-14T13:07:33;15.90;;;8.02;;
54263;SDS011;40178;53.042;6.406;2023-12-14T13:10:02;15.15;;;7.43;;
54263;SDS011;40178;53.042;6.406;2023-12-14T13:12:29;17.70;;;8.60;;
54263;SDS011;40178;53.042;6.406;2023-12-14T13:14:55;15.70;;;8.30;;
54263;SDS011;40178;53.042;6.406;2023-12-14T13:17:20;13.73;;;7.43;;
54263;SDS011;40178;53.042;6.406;2023-12-14T13:19:46;14.30;;;8.07;;
54263;SDS011;40178;53.042;6.406;2023-12-14T13:22:12;14.65;;;7.53;;
54263;SDS011;40178;53.042;6.406;2023-12-14T13:24:38;15.55;;;8.00;;
54263;SDS011;40178;53.042;6.406;2023-12-14T13:27:04;16.13;;;8.38;;
54263;SDS011;40178;53.042;6.406;2023-12-14T13:29:30;16.05;;;7.30;;
54263;SDS011;40178;53.042;6.406;2023-12-14T13:31:57;14.70;;;7.97;;
54263;SDS011;40178;53.042;6.406;2023-12-14T13:34:24;14.63;;;8.35;;
54263;SDS011;40178;53.042;6.406;2023-12-14T13:36:50;16.10;;;7.95;;
54263;SDS011;40178;53.042;6.406;2023-12-14T13:39:15;16.98;;;9.60;;
54263;SDS011;40178;53.042;6.406;2023-12-14T13:41:41;14.57;;;6.80;;
54263;SDS011;40178;53.042;6.406;2023-12-14T13:44:07;13.30;;;7.32;;
54263;SDS011;40178;53.042;6.406;2023-12-14T13:46:32;16.15;;;7.88;;
54263;SDS011;40178;53.042;6.406;2023-12-14T13:48:58;17.33;;;8.07;;
54263;SDS011;40178;53.042;6.406;2023-12-14T13:51:24;13.55;;;7.60;;
54263;SDS011;40178;53.042;6.406;2023-12-14T13:53:50;17.85;;;8.27;;
54263;SDS011;40178;53.042;6.406;2023-12-14T13:56:16;16.90;;;8.40;;
54263;SDS011;40178;53.042;6.406;2023-12-14T13:58:41;15.38;;;8.30;;
54263;SDS011;40178;53.042;6.406;2023-12-14T14:01:07;17.25;;;8.55;;
54263;SDS011;40178;53.042;6.406;2023-12-14T14:03:35;14.55;;;7.72;;
54263;SDS011;40178;53.042;6.406;2023-12-14T14:06:02;12.93;;;7.53;;
54263;SDS011;40178;53.042;6.406;2023-12-14T14:08:28;19.42;;;8.13;;
54263;SDS011;40178;53.042;6.406;2023-12-14T14:10:56;20.70;;;8.80;;
54263;SDS011;40178;53.042;6.406;2023-12-14T14:13:22;15.70;;;7.40;;
54263;SDS011;40178;53.042;6.406;2023-12-14T14:15:48;18.15;;;8.00;;
54263;SDS011;40178;53.042;6.406;2023-12-14T14:18:13;17.60;;;9.02;;
54263;SDS011;40178;53.042;6.406;2023-12-14T14:20:39;15.30;;;7.93;;
54263;SDS011;40178;53.042;6.406;2023-12-14T14:23:05;14.95;;;7.88;;
54263;SDS011;40178;53.042;6.406;2023-12-14T14:25:30;16.65;;;8.45;;
54263;SDS011;40178;53.042;6.406;2023-12-14T14:27:56;14.57;;;8.00;;
54263;SDS011;40178;53.042;6.406;2023-12-14T14:30:23;17.50;;;8.70;;
54263;SDS011;40178;53.042;6.406;2023-12-14T14:32:49;16.08;;;8.70;;
54263;SDS011;40178;53.042;6.406;2023-12-14T14:35:15;16.92;;;8.07;;
54263;SDS011;40178;53.042;6.406;2023-12-14T14:37:40;16.25;;;8.48;;
54263;SDS011;40178;53.042;6.406;2023-12-14T14:40:10;19.67;;;8.10;;
54263;SDS011;40178;53.042;6.406;2023-12-14T14:42:39;15.73;;;8.02;;
54263;SDS011;40178;53.042;6.406;2023-12-14T14:45:09;15.82;;;7.88;;
54263;SDS011;40178;53.042;6.406;2023-12-14T14:47:35;14.75;;;8.20;;